createdAt,value
2023-03-04T00:01:42.399Z,36.10
2023-03-04T00:04:08.666Z,40.03
2023-03-04T00:06:34.990Z,38.83
2023-03-04T00:09:01.356Z,40.27
2023-03-04T00:11:27.668Z,37.73
2023-03-04T00:13:54.070Z,39.20
2023-03-04T00:16:20.432Z,37.40
2023-03-04T00:18:46.729Z,37.53
2023-03-04T00:21:13.013Z,37.77
2023-03-04T00:23:41.251Z,39.67
2023-03-04T00:26:09.562Z,37.93
2023-03-04T00:28:36.292Z,40.23
2023-03-04T00:31:02.905Z,37.37
2023-03-04T00:33:29.125Z,40.63
2023-03-04T00:35:55.498Z,39.03
2023-03-04T00:38:21.759Z,43.30
2023-03-04T00:40:48.029Z,38.87
2023-03-04T00:43:14.296Z,36.10
2023-03-04T00:45:40.582Z,40.07
2023-03-04T00:48:07.049Z,38.70
2023-03-04T00:50:33.264Z,34.40
2023-03-04T00:52:59.530Z,40.33
2023-03-04T00:55:25.757Z,36.90
2023-03-04T00:57:51.977Z,38.60
2023-03-04T01:00:18.474Z,32.63
2023-03-04T01:02:44.759Z,37.43
2023-03-04T01:05:11.136Z,36.20
2023-03-04T01:07:37.448Z,35.77
2023-03-04T01:10:04.144Z,30.47
2023-03-04T01:12:30.383Z,36.43
2023-03-04T01:14:56.711Z,34.03
2023-03-04T01:17:23.111Z,33.97
2023-03-04T01:19:49.387Z,30.00
2023-03-04T01:22:16.693Z,34.27
2023-03-04T01:24:43.004Z,35.20
2023-03-04T01:27:09.236Z,32.80
2023-03-04T01:29:35.526Z,28.87
2023-03-04T01:32:01.851Z,32.77
2023-03-04T01:34:28.107Z,35.40
2023-03-04T01:36:54.419Z,41.43
2023-03-04T01:39:20.856Z,37.63
2023-03-04T01:41:47.370Z,30.83
2023-03-04T01:44:13.689Z,27.80
2023-03-04T01:46:42.362Z,25.77
2023-03-04T01:49:09.875Z,29.97
2023-03-04T01:51:36.131Z,26.00
2023-03-04T01:54:02.375Z,29.73
2023-03-04T01:56:29.656Z,26.83
2023-03-04T01:59:14.530Z,29.60
2023-03-04T02:01:43.477Z,27.77
2023-03-04T02:04:10.346Z,25.70
2023-03-04T02:06:37.948Z,29.03
2023-03-04T02:09:04.754Z,25.73
2023-03-04T02:11:31.270Z,29.93
2023-03-04T02:13:58.037Z,24.57
2023-03-04T02:16:24.324Z,26.27
2023-03-04T02:18:50.789Z,28.73
2023-03-04T02:21:16.993Z,20.00
2023-03-04T02:23:55.665Z,25.27
2023-03-04T02:26:23.572Z,18.73
2023-03-04T02:28:50.944Z,22.07
2023-03-04T02:31:20.342Z,21.27
2023-03-04T02:33:46.765Z,19.57
2023-03-04T02:36:13.208Z,19.10
2023-03-04T02:38:39.448Z,23.37
2023-03-04T02:41:06.491Z,24.40
2023-03-04T02:43:32.709Z,22.83
2023-03-04T02:45:58.938Z,28.90
2023-03-04T02:48:25.246Z,22.40
2023-03-04T02:50:52.795Z,30.20
2023-03-04T02:53:20.737Z,22.83
2023-03-04T02:55:47.238Z,20.10
2023-03-04T02:58:13.782Z,26.90
2023-03-04T03:00:40.140Z,24.27
2023-03-04T03:03:06.458Z,24.07
2023-03-04T03:05:33.759Z,20.70
2023-03-04T03:08:00.068Z,25.67
2023-03-04T03:10:26.531Z,19.40
2023-03-04T03:12:52.820Z,24.17
2023-03-04T03:15:19.128Z,22.03
2023-03-04T03:17:45.542Z,23.30
2023-03-04T03:20:12.851Z,24.07
2023-03-04T03:22:39.800Z,26.33
2023-03-04T03:25:06.384Z,19.73
2023-03-04T03:27:32.878Z,22.07
2023-03-04T03:29:59.215Z,20.30
2023-03-04T03:32:25.482Z,15.80
2023-03-04T03:34:51.847Z,18.37
2023-03-04T03:37:18.198Z,18.90
2023-03-04T03:39:44.581Z,24.23
2023-03-04T03:42:10.805Z,20.07
2023-03-04T03:44:37.074Z,21.07
2023-03-04T03:47:03.321Z,26.03
2023-03-04T03:49:30.551Z,20.07
2023-03-04T03:51:56.806Z,18.90
2023-03-04T03:54:23.044Z,24.97
2023-03-04T03:56:49.389Z,20.03
2023-03-04T03:59:15.700Z,18.57
2023-03-04T04:01:41.948Z,30.50
2023-03-04T04:04:08.287Z,23.30
2023-03-04T04:06:34.584Z,25.30
2023-03-04T04:09:00.874Z,21.40
2023-03-04T04:11:27.999Z,17.77
2023-03-04T04:13:54.236Z,22.97
2023-03-04T04:16:20.582Z,23.03
2023-03-04T04:18:46.844Z,19.13
2023-03-04T04:21:13.558Z,21.47
2023-03-04T04:23:39.774Z,19.33
2023-03-04T04:26:06.004Z,19.87
2023-03-04T04:28:32.320Z,23.43
2023-03-04T04:30:58.626Z,16.97
2023-03-04T04:33:24.927Z,17.67
2023-03-04T04:35:51.284Z,14.70
2023-03-04T04:38:17.643Z,21.13
2023-03-04T04:40:43.956Z,16.00
2023-03-04T04:43:10.184Z,19.80
2023-03-04T04:45:36.462Z,16.57
2023-03-04T04:48:02.710Z,18.20
2023-03-04T04:50:31.150Z,18.27
2023-03-04T04:52:58.785Z,14.93
2023-03-04T04:55:25.016Z,18.33
2023-03-04T04:57:51.315Z,17.90
2023-03-04T05:00:18.982Z,17.33
2023-03-04T05:02:45.252Z,16.27
2023-03-04T05:05:11.463Z,14.03
2023-03-04T05:07:37.802Z,16.07
2023-03-04T05:10:04.246Z,15.97
2023-03-04T05:12:30.465Z,16.43
2023-03-04T05:14:56.703Z,18.67
2023-03-04T05:17:22.983Z,19.60
2023-03-04T05:19:49.235Z,14.47
2023-03-04T05:22:15.457Z,13.33
2023-03-04T05:24:41.694Z,16.43
2023-03-04T05:27:07.966Z,19.20
2023-03-04T05:29:34.222Z,13.73
2023-03-04T05:32:00.494Z,13.00
2023-03-04T05:34:26.750Z,12.00
2023-03-04T05:36:53.051Z,15.00
2023-03-04T05:39:19.338Z,12.00
2023-03-04T05:41:45.599Z,11.70
2023-03-04T05:44:11.861Z,13.63
2023-03-04T05:46:38.204Z,15.93
2023-03-04T05:49:04.474Z,6.70
2023-03-04T05:51:30.728Z,12.30
2023-03-04T05:53:56.988Z,12.63
2023-03-04T05:56:23.250Z,13.03
2023-03-04T05:58:49.761Z,11.50
2023-03-04T06:01:16.869Z,18.83
2023-03-04T06:03:44.012Z,10.43
2023-03-04T06:06:10.482Z,12.40
2023-03-04T06:08:36.954Z,11.20
2023-03-04T06:11:04.912Z,10.67
2023-03-04T06:13:31.234Z,13.07
2023-03-04T06:15:58.345Z,10.67
2023-03-04T06:18:25.456Z,11.60
2023-03-04T06:20:55.178Z,9.80
2023-03-04T06:23:21.406Z,12.07
2023-03-04T06:25:51.031Z,9.33
2023-03-04T06:28:17.238Z,11.53
2023-03-04T06:30:43.468Z,10.17
2023-03-04T06:33:09.712Z,7.57
2023-03-04T06:35:36.130Z,10.47
2023-03-04T06:38:02.368Z,10.67
2023-03-04T06:40:28.578Z,12.27
2023-03-04T06:42:54.799Z,8.33
2023-03-04T06:45:21.121Z,11.70
2023-03-04T06:47:47.431Z,8.50
2023-03-04T06:50:13.839Z,14.23
2023-03-04T06:52:40.112Z,14.13
2023-03-04T06:55:06.860Z,13.43
2023-03-04T06:57:33.097Z,9.70
2023-03-04T06:59:59.506Z,12.17
2023-03-04T07:02:25.761Z,14.50
2023-03-04T07:04:52.072Z,10.87
2023-03-04T07:07:18.400Z,11.73
2023-03-04T07:09:44.700Z,11.07
2023-03-04T07:12:10.969Z,11.80
2023-03-04T07:14:37.199Z,12.50
2023-03-04T07:17:03.601Z,12.07
2023-03-04T07:19:30.102Z,10.63
2023-03-04T07:21:56.420Z,7.80
2023-03-04T07:24:22.911Z,13.43
2023-03-04T07:26:49.192Z,13.57
2023-03-04T07:29:15.421Z,11.00
2023-03-04T07:31:41.766Z,14.97
2023-03-04T07:34:10.147Z,12.83
2023-03-04T07:36:37.223Z,7.93
2023-03-04T07:39:04.010Z,14.80
2023-03-04T07:41:31.032Z,6.30
2023-03-04T07:43:57.802Z,8.43
2023-03-04T07:46:24.451Z,10.53
2023-03-04T07:48:50.826Z,14.00
2023-03-04T07:51:18.259Z,10.53
2023-03-04T07:53:45.950Z,5.73
2023-03-04T07:56:13.036Z,8.27
2023-03-04T07:58:39.509Z,7.93
2023-03-04T08:01:16.416Z,9.50
2023-03-04T08:03:43.138Z,7.03
2023-03-04T08:06:10.658Z,10.90
2023-03-04T08:08:37.374Z,6.30
2023-03-04T08:11:04.649Z,8.10
2023-03-04T08:13:31.742Z,5.90
2023-03-04T08:15:58.189Z,7.67
2023-03-04T08:18:24.440Z,9.93
2023-03-04T08:20:50.670Z,12.03
2023-03-04T08:23:16.910Z,7.70
2023-03-04T08:25:43.424Z,9.27
2023-03-04T08:28:10.209Z,10.23
2023-03-04T08:30:36.541Z,9.07
2023-03-04T08:33:03.450Z,7.53
2023-03-04T08:35:29.872Z,5.50
2023-03-04T08:37:56.182Z,7.30
2023-03-04T08:40:22.466Z,7.00
2023-03-04T08:42:48.809Z,7.20
2023-03-04T08:45:15.104Z,7.67
2023-03-04T08:47:41.335Z,6.67
2023-03-04T08:50:08.415Z,6.93
2023-03-04T08:52:34.711Z,8.93
2023-03-04T08:55:01.161Z,10.20
2023-03-04T08:57:27.406Z,9.70
2023-03-04T08:59:53.644Z,7.00
2023-03-04T09:02:20.160Z,7.50
2023-03-04T09:04:46.396Z,7.33
2023-03-04T09:07:14.134Z,5.77
2023-03-04T09:09:40.890Z,8.83
2023-03-04T09:12:07.615Z,11.43
2023-03-04T09:14:35.792Z,8.20
2023-03-04T09:17:03.388Z,7.73
2023-03-04T09:19:29.769Z,9.17
2023-03-04T09:21:56.709Z,8.30
2023-03-04T09:24:22.961Z,7.63
2023-03-04T09:26:52.722Z,10.77
2023-03-04T09:29:18.974Z,9.10
2023-03-04T09:31:45.250Z,7.73
2023-03-04T09:34:11.682Z,10.37
2023-03-04T09:36:38.140Z,7.00
2023-03-04T09:39:05.181Z,7.27
2023-03-04T09:41:37.830Z,5.03
2023-03-04T09:44:07.442Z,9.00
2023-03-04T09:46:36.061Z,9.00
2023-03-04T09:49:02.365Z,9.43
2023-03-04T09:51:41.865Z,6.80
2023-03-04T09:54:23.273Z,7.17
2023-03-04T09:56:50.972Z,9.53
2023-03-04T09:59:21.751Z,7.27
2023-03-04T10:01:49.966Z,6.83
2023-03-04T10:04:18.576Z,9.27
2023-03-04T10:06:51.548Z,11.03
2023-03-04T10:09:19.624Z,12.63
2023-03-04T10:11:47.894Z,8.87
2023-03-04T10:14:16.961Z,7.50
2023-03-04T10:16:52.725Z,10.83
2023-03-04T10:19:18.922Z,7.40
2023-03-04T10:21:46.562Z,9.37
2023-03-04T10:24:14.657Z,10.10
2023-03-04T10:26:43.291Z,12.50
2023-03-04T10:29:16.509Z,9.23
2023-03-04T10:31:43.798Z,10.10
2023-03-04T10:34:11.713Z,10.93
2023-03-04T10:36:44.244Z,9.03
2023-03-04T10:39:10.510Z,11.37
2023-03-04T10:41:37.090Z,10.00
2023-03-04T10:44:09.435Z,13.90
2023-03-04T10:46:39.513Z,12.03
2023-03-04T10:49:06.127Z,14.63
2023-03-04T10:51:32.601Z,14.23
2023-03-04T10:54:01.515Z,12.43
2023-03-04T10:56:42.884Z,13.27
2023-03-04T10:59:24.192Z,10.60
2023-03-04T11:01:50.784Z,12.97
2023-03-04T11:04:18.678Z,10.63
2023-03-04T11:06:45.205Z,15.80
2023-03-04T11:09:21.467Z,11.00
2023-03-04T11:11:49.750Z,12.37
2023-03-04T11:14:29.347Z,9.43
2023-03-04T11:16:59.702Z,12.50
2023-03-04T11:19:30.564Z,9.93
2023-03-04T11:21:57.536Z,13.43
2023-03-04T11:24:29.535Z,12.00
2023-03-04T11:27:34.756Z,15.17
2023-03-04T11:30:13.095Z,18.77
2023-03-04T11:32:40.807Z,21.40
2023-03-04T11:35:14.650Z,14.70
2023-03-04T11:37:43.891Z,14.67
2023-03-04T11:40:12.317Z,11.63
2023-03-04T11:42:44.147Z,14.23
2023-03-04T11:45:27.555Z,15.20
2023-03-04T11:48:10.032Z,16.17
2023-03-04T11:50:45.742Z,17.70
2023-03-04T11:53:20.166Z,13.47
2023-03-04T11:55:51.035Z,14.50
2023-03-04T11:58:23.674Z,18.00
2023-03-04T12:00:57.513Z,16.13
2023-03-04T12:03:44.989Z,19.60
2023-03-04T12:06:17.435Z,18.23
2023-03-04T12:09:03.569Z,18.23
2023-03-04T12:11:40.170Z,15.37
2023-03-04T12:14:14.962Z,14.10
2023-03-04T12:16:52.630Z,18.37
2023-03-04T12:19:19.345Z,16.07
2023-03-04T12:21:59.782Z,16.90
2023-03-04T12:24:33.078Z,17.20
2023-03-04T12:27:07.888Z,20.37
2023-03-04T12:29:43.425Z,18.37
2023-03-04T12:32:18.809Z,15.93
2023-03-04T12:35:03.262Z,16.60
2023-03-04T12:37:43.893Z,18.37
2023-03-04T12:40:19.512Z,16.03
2023-03-04T12:43:05.165Z,14.53
2023-03-04T12:45:50.077Z,13.10
2023-03-04T12:48:23.200Z,12.73
2023-03-04T12:51:12.655Z,15.23
2023-03-04T12:53:52.418Z,15.60
2023-03-04T12:56:37.083Z,13.70
2023-03-04T12:59:03.840Z,11.63
2023-03-04T13:01:37.108Z,13.17
2023-03-04T13:04:23.164Z,14.43
2023-03-04T13:06:58.140Z,12.70
2023-03-04T13:09:33.188Z,12.90
2023-03-04T13:12:20.937Z,14.13
2023-03-04T13:15:14.085Z,11.17
2023-03-04T13:17:43.582Z,11.40
2023-03-04T13:20:19.056Z,12.90
2023-03-04T13:22:58.506Z,15.30
2023-03-04T13:25:44.357Z,14.07
2023-03-04T13:28:13.596Z,15.13
2023-03-04T13:30:44.088Z,15.60
2023-03-04T13:33:16.264Z,13.20
2023-03-04T13:35:48.507Z,13.10
2023-03-04T13:38:23.665Z,12.00
2023-03-04T13:41:05.560Z,12.03
2023-03-04T13:43:54.690Z,14.27
2023-03-04T13:46:21.156Z,10.97
2023-03-04T13:48:50.240Z,17.67
2023-03-04T13:51:29.706Z,16.97
2023-03-04T13:53:59.385Z,13.43
2023-03-04T13:56:25.688Z,13.43
2023-03-04T13:59:02.355Z,11.87
2023-03-04T14:01:31.723Z,13.33
2023-03-04T14:03:58.509Z,17.43
2023-03-04T14:06:26.252Z,14.07
2023-03-04T14:08:53.199Z,16.03
2023-03-04T14:11:28.103Z,12.40
2023-03-04T14:13:55.411Z,14.03
2023-03-04T14:16:22.405Z,18.00
2023-03-04T14:19:05.328Z,12.23
2023-03-04T14:21:31.754Z,12.43
2023-03-04T14:24:06.092Z,16.13
2023-03-04T14:26:33.041Z,12.10
2023-03-04T14:28:59.740Z,16.80
2023-03-04T14:31:28.339Z,15.13
2023-03-04T14:34:01.841Z,11.13
2023-03-04T14:36:30.014Z,18.60
2023-03-04T14:38:58.879Z,15.30
2023-03-04T14:41:27.645Z,11.53
2023-03-04T14:44:17.205Z,15.30
2023-03-04T14:47:04.548Z,18.00
2023-03-04T14:49:34.146Z,10.33
2023-03-04T14:52:00.397Z,11.57
2023-03-04T14:54:31.779Z,15.57
2023-03-04T14:56:59.333Z,14.17
2023-03-04T14:59:30.072Z,15.67
2023-03-04T15:02:08.930Z,12.27
2023-03-04T15:04:38.511Z,12.27
2023-03-04T15:07:04.809Z,9.13
2023-03-04T15:09:31.037Z,13.60
2023-03-04T15:12:00.299Z,12.20
2023-03-04T15:14:41.997Z,13.40
2023-03-04T15:17:27.147Z,16.37
2023-03-04T15:20:05.795Z,12.30
2023-03-04T15:22:36.086Z,19.43
2023-03-04T15:25:02.385Z,11.63
2023-03-04T15:27:29.341Z,16.27
2023-03-04T15:29:59.076Z,21.20
2023-03-04T15:32:26.089Z,14.17
2023-03-04T15:34:52.325Z,16.33
2023-03-04T15:37:20.807Z,19.57
2023-03-04T15:39:47.294Z,18.23
2023-03-04T15:42:13.834Z,17.93
2023-03-04T15:44:40.113Z,18.50
2023-03-04T15:47:08.775Z,14.07
2023-03-04T15:49:35.350Z,13.87
2023-03-04T15:52:03.251Z,25.80
2023-03-04T15:54:29.557Z,12.13
2023-03-04T15:56:58.261Z,16.03
2023-03-04T15:59:24.842Z,17.13
2023-03-04T16:01:51.125Z,17.37
2023-03-04T16:04:17.566Z,16.67
2023-03-04T16:06:48.358Z,15.43
2023-03-04T16:09:16.679Z,17.73
2023-03-04T16:11:45.434Z,14.57
2023-03-04T16:14:11.850Z,15.90
2023-03-04T16:16:38.070Z,15.90
2023-03-04T16:19:04.314Z,12.03
2023-03-04T16:21:30.529Z,16.27
2023-03-04T16:23:57.363Z,16.57
2023-03-04T16:26:24.613Z,13.47
2023-03-04T16:28:51.533Z,20.57
2023-03-04T16:31:18.731Z,16.07
2023-03-04T16:33:45.376Z,14.17
2023-03-04T16:36:16.401Z,11.13
2023-03-04T16:38:43.013Z,14.73
2023-03-04T16:41:13.046Z,15.90
2023-03-04T16:43:40.065Z,16.27
2023-03-04T16:46:06.445Z,11.47
2023-03-04T16:48:32.827Z,12.33
2023-03-04T16:50:59.383Z,14.23
2023-03-04T16:53:36.262Z,17.53
2023-03-04T16:56:13.021Z,12.40
2023-03-04T16:58:39.256Z,14.70
2023-03-04T17:01:05.777Z,9.90
2023-03-04T17:03:32.422Z,10.33
2023-03-04T17:05:58.922Z,10.57
2023-03-04T17:08:25.197Z,12.90
2023-03-04T17:10:52.453Z,11.83
2023-03-04T17:13:18.689Z,16.93
2023-03-04T17:15:46.797Z,11.97
2023-03-04T17:18:13.076Z,17.03
2023-03-04T17:20:39.844Z,12.53
2023-03-04T17:23:06.115Z,13.23
2023-03-04T17:25:33.470Z,13.57
2023-03-04T17:27:59.710Z,11.47
2023-03-04T17:30:26.111Z,12.20
2023-03-04T17:32:52.412Z,19.67
2023-03-04T17:35:18.695Z,19.83
2023-03-04T17:37:44.978Z,17.63
2023-03-04T17:40:14.156Z,12.30
2023-03-04T17:42:41.534Z,11.77
2023-03-04T17:45:08.197Z,10.03
2023-03-04T17:47:36.173Z,14.37
2023-03-04T17:50:03.417Z,12.60
2023-03-04T17:52:29.628Z,17.20
2023-03-04T17:54:55.897Z,18.43
2023-03-04T17:57:22.125Z,17.80
2023-03-04T17:59:48.641Z,16.07
2023-03-04T18:02:15.701Z,17.30
2023-03-04T18:04:42.595Z,13.77
2023-03-04T18:07:09.148Z,19.27
2023-03-04T18:09:35.409Z,15.77
2023-03-04T18:12:01.695Z,15.57
2023-03-04T18:14:27.972Z,19.10
2023-03-04T18:16:54.228Z,20.37
2023-03-04T18:19:20.438Z,19.47
2023-03-04T18:21:46.692Z,14.33
2023-03-04T18:24:12.941Z,18.80
2023-03-04T18:26:39.285Z,21.87
2023-03-04T18:29:06.385Z,16.43
2023-03-04T18:31:33.522Z,19.43
2023-03-04T18:34:02.961Z,18.70
2023-03-04T18:36:29.699Z,21.07
2023-03-04T18:38:57.268Z,17.83
2023-03-04T18:41:25.265Z,13.20
2023-03-04T18:43:53.410Z,19.63
2023-03-04T18:46:30.657Z,14.70
2023-03-04T18:49:00.243Z,14.80
2023-03-04T18:51:26.473Z,21.83
2023-03-04T18:53:52.749Z,21.43
2023-03-04T18:56:22.691Z,19.73
2023-03-04T18:58:49.517Z,12.57
2023-03-04T19:01:16.892Z,17.63
2023-03-04T19:03:43.876Z,22.70
2023-03-04T19:06:10.598Z,16.17
2023-03-04T19:08:37.000Z,16.43
2023-03-04T19:11:05.949Z,19.53
2023-03-04T19:13:32.890Z,21.27
2023-03-04T19:15:59.445Z,14.23
2023-03-04T19:18:25.917Z,19.80
2023-03-04T19:20:52.148Z,19.93
2023-03-04T19:23:18.483Z,17.90
2023-03-04T19:25:44.769Z,19.67
2023-03-04T19:28:11.369Z,15.97
2023-03-04T19:30:38.740Z,19.93
2023-03-04T19:33:05.238Z,19.30
2023-03-04T19:35:32.699Z,15.13
2023-03-04T19:37:59.759Z,17.87
2023-03-04T19:40:28.288Z,19.13
2023-03-04T19:42:55.396Z,16.33
2023-03-04T19:45:21.655Z,15.17
2023-03-04T19:47:48.000Z,21.07
2023-03-04T19:50:14.496Z,13.07
2023-03-04T19:52:40.820Z,22.53
2023-03-04T19:55:07.366Z,15.63
2023-03-04T19:57:33.738Z,17.87
2023-03-04T20:00:00.013Z,19.10
2023-03-04T20:02:26.501Z,21.83
2023-03-04T20:04:52.768Z,15.63
2023-03-04T20:07:19.021Z,17.17
2023-03-04T20:09:45.248Z,23.23
2023-03-04T20:12:12.901Z,13.40
2023-03-04T20:14:39.367Z,18.97
2023-03-04T20:17:06.925Z,20.80
2023-03-04T20:19:33.857Z,15.27
2023-03-04T20:22:00.160Z,16.87
2023-03-04T20:24:26.885Z,15.80
2023-03-04T20:26:53.358Z,20.03
2023-03-04T20:29:19.690Z,15.30
2023-03-04T20:31:46.625Z,13.27
2023-03-04T20:34:13.140Z,15.67
2023-03-04T20:36:39.560Z,14.73
2023-03-04T20:39:25.843Z,15.77
2023-03-04T20:41:54.313Z,15.80
2023-03-04T20:44:20.547Z,15.87
2023-03-04T20:46:46.840Z,17.50
2023-03-04T20:49:15.078Z,15.67
2023-03-04T20:51:41.870Z,12.20
2023-03-04T20:54:08.244Z,16.67
2023-03-04T20:56:34.972Z,15.73
2023-03-04T20:59:03.560Z,20.20
2023-03-04T21:01:31.044Z,17.47
2023-03-04T21:03:58.117Z,15.17
2023-03-04T21:06:29.057Z,16.93
2023-03-04T21:08:55.718Z,17.60
2023-03-04T21:11:25.751Z,18.37
2023-03-04T21:13:58.493Z,14.87
2023-03-04T21:16:29.992Z,16.13
2023-03-04T21:18:56.261Z,19.53
2023-03-04T21:21:23.895Z,15.53
2023-03-04T21:23:51.042Z,17.27
2023-03-04T21:26:17.969Z,18.47
2023-03-04T21:28:44.406Z,20.13
2023-03-04T21:31:18.745Z,18.27
2023-03-04T21:33:45.727Z,13.83
2023-03-04T21:36:13.867Z,13.80
2023-03-04T21:38:41.200Z,17.80
2023-03-04T21:41:10.914Z,17.30
2023-03-04T21:43:37.170Z,10.27
2023-03-04T21:46:05.344Z,15.20
2023-03-04T21:48:31.618Z,18.53
2023-03-04T21:51:05.045Z,15.33
2023-03-04T21:53:32.174Z,12.63
2023-03-04T21:55:58.445Z,20.47
2023-03-04T21:58:25.330Z,15.37
2023-03-04T22:00:51.867Z,14.57
2023-03-04T22:03:18.732Z,11.37
2023-03-04T22:05:45.453Z,12.07
2023-03-04T22:08:12.785Z,12.07
2023-03-04T22:10:40.174Z,12.20
2023-03-04T22:13:09.148Z,18.87
2023-03-04T22:15:36.760Z,12.53
2023-03-04T22:18:03.877Z,15.73
2023-03-04T22:20:30.402Z,13.07
2023-03-04T22:22:56.638Z,12.23
2023-03-04T22:25:22.857Z,13.23
2023-03-04T22:27:49.120Z,9.70
2023-03-04T22:30:17.298Z,12.30
2023-03-04T22:32:48.195Z,10.93
2023-03-04T22:35:17.786Z,10.83
2023-03-04T22:37:44.615Z,9.27
2023-03-04T22:40:15.086Z,11.90
2023-03-04T22:42:42.774Z,11.77
2023-03-04T22:45:10.110Z,20.97
2023-03-04T22:47:36.347Z,12.90
2023-03-04T22:50:02.874Z,8.60
2023-03-04T22:52:29.110Z,15.20
2023-03-04T22:54:55.335Z,14.87
2023-03-04T22:57:21.800Z,19.23
2023-03-04T22:59:48.875Z,14.00
2023-03-04T23:02:15.153Z,15.73
2023-03-04T23:04:42.998Z,10.53
2023-03-04T23:07:09.441Z,10.70
2023-03-04T23:09:35.695Z,19.40
2023-03-04T23:12:01.963Z,14.43
2023-03-04T23:14:28.335Z,19.43
2023-03-04T23:16:54.778Z,17.37
2023-03-04T23:19:21.066Z,12.40
2023-03-04T23:21:47.380Z,17.13
2023-03-04T23:24:14.053Z,17.00
2023-03-04T23:26:41.451Z,17.20
2023-03-04T23:29:08.907Z,21.63
2023-03-04T23:31:35.482Z,17.07
2023-03-04T23:34:02.230Z,18.43
2023-03-04T23:36:29.811Z,21.73
2023-03-04T23:38:56.289Z,20.10
2023-03-04T23:41:23.655Z,14.17
2023-03-04T23:43:52.035Z,19.03
2023-03-04T23:46:18.611Z,15.93
2023-03-04T23:48:48.246Z,22.37
2023-03-04T23:51:15.824Z,13.33
2023-03-04T23:53:42.187Z,24.27
2023-03-04T23:56:09.397Z,12.23
2023-03-04T23:58:35.722Z,14.83
